sensor_id;sensor_type;location;lat;lon;timestamp;P1;durP1;ratioP1;P2;durP2;ratioP2
42886;SDS011;29032;56.028;92.904;2022-12-05T00:01:33;67.17;;;24.53;;
42886;SDS011;29032;56.028;92.904;2022-12-05T00:06:37;74.60;;;26.00;;
42886;SDS011;29032;56.028;92.904;2022-12-05T00:11:42;90.20;;;31.40;;
42886;SDS011;29032;56.028;92.904;2022-12-05T00:16:45;79.63;;;28.87;;
42886;SDS011;29032;56.028;92.904;2022-12-05T00:21:47;79.90;;;31.23;;
42886;SDS011;29032;56.028;92.904;2022-12-05T00:26:51;63.93;;;25.87;;
42886;SDS011;29032;56.028;92.904;2022-12-05T00:31:53;56.53;;;24.73;;
42886;SDS011;29032;56.028;92.904;2022-12-05T00:36:55;57.87;;;23.57;;
42886;SDS011;29032;56.028;92.904;2022-12-05T00:41:58;69.47;;;25.27;;
42886;SDS011;29032;56.028;92.904;2022-12-05T00:47:00;70.13;;;23.03;;
42886;SDS011;29032;56.028;92.904;2022-12-05T00:52:03;68.73;;;26.27;;
42886;SDS011;29032;56.028;92.904;2022-12-05T00:57:06;77.17;;;27.60;;
42886;SDS011;29032;56.028;92.904;2022-12-05T01:02:08;69.73;;;27.00;;
42886;SDS011;29032;56.028;92.904;2022-12-05T01:07:11;104.10;;;33.20;;
42886;SDS011;29032;56.028;92.904;2022-12-05T01:12:14;92.63;;;33.00;;
42886;SDS011;29032;56.028;92.904;2022-12-05T01:17:17;69.20;;;26.43;;
42886;SDS011;29032;56.028;92.904;2022-12-05T01:22:19;64.47;;;25.00;;
42886;SDS011;29032;56.028;92.904;2022-12-05T01:27:23;67.93;;;26.20;;
42886;SDS011;29032;56.028;92.904;2022-12-05T01:32:25;61.40;;;23.40;;
42886;SDS011;29032;56.028;92.904;2022-12-05T01:37:27;61.97;;;22.40;;
42886;SDS011;29032;56.028;92.904;2022-12-05T01:42:30;69.00;;;24.53;;
42886;SDS011;29032;56.028;92.904;2022-12-05T01:47:33;77.67;;;25.80;;
42886;SDS011;29032;56.028;92.904;2022-12-05T01:52:36;71.60;;;23.90;;
42886;SDS011;29032;56.028;92.904;2022-12-05T01:57:41;68.63;;;23.80;;
42886;SDS011;29032;56.028;92.904;2022-12-05T02:02:47;66.40;;;23.03;;
42886;SDS011;29032;56.028;92.904;2022-12-05T02:07:53;74.90;;;27.87;;
42886;SDS011;29032;56.028;92.904;2022-12-05T02:12:58;65.97;;;25.10;;
42886;SDS011;29032;56.028;92.904;2022-12-05T02:18:11;72.47;;;25.03;;
42886;SDS011;29032;56.028;92.904;2022-12-05T02:23:26;75.13;;;28.93;;
42886;SDS011;29032;56.028;92.904;2022-12-05T02:34:36;67.60;;;24.80;;
42886;SDS011;29032;56.028;92.904;2022-12-05T02:39:47;63.83;;;23.33;;
42886;SDS011;29032;56.028;92.904;2022-12-05T02:44:56;50.73;;;21.70;;
42886;SDS011;29032;56.028;92.904;2022-12-05T02:50:04;57.83;;;20.13;;
42886;SDS011;29032;56.028;92.904;2022-12-05T02:55:09;45.50;;;18.30;;
42886;SDS011;29032;56.028;92.904;2022-12-05T03:00:13;45.17;;;16.47;;
42886;SDS011;29032;56.028;92.904;2022-12-05T03:05:18;51.93;;;17.80;;
42886;SDS011;29032;56.028;92.904;2022-12-05T03:10:27;54.07;;;19.87;;
42886;SDS011;29032;56.028;92.904;2022-12-05T03:15:33;54.97;;;20.03;;
42886;SDS011;29032;56.028;92.904;2022-12-05T03:20:42;54.33;;;20.10;;
42886;SDS011;29032;56.028;92.904;2022-12-05T03:25:49;54.73;;;21.10;;
42886;SDS011;29032;56.028;92.904;2022-12-05T03:36:04;52.83;;;19.67;;
42886;SDS011;29032;56.028;92.904;2022-12-05T03:41:13;97.53;;;31.23;;
42886;SDS011;29032;56.028;92.904;2022-12-05T03:46:23;102.27;;;36.80;;
42886;SDS011;29032;56.028;92.904;2022-12-05T03:51:32;99.80;;;33.37;;
42886;SDS011;29032;56.028;92.904;2022-12-05T03:56:39;82.07;;;29.63;;
42886;SDS011;29032;56.028;92.904;2022-12-05T04:06:49;68.73;;;26.27;;
42886;SDS011;29032;56.028;92.904;2022-12-05T04:12:01;71.47;;;25.77;;
42886;SDS011;29032;56.028;92.904;2022-12-05T04:17:06;88.93;;;28.60;;
42886;SDS011;29032;56.028;92.904;2022-12-05T04:22:18;79.77;;;28.10;;
42886;SDS011;29032;56.028;92.904;2022-12-05T04:27:21;86.10;;;27.33;;
42886;SDS011;29032;56.028;92.904;2022-12-05T04:32:35;72.07;;;25.67;;
42886;SDS011;29032;56.028;92.904;2022-12-05T04:37:47;73.83;;;24.30;;
42886;SDS011;29032;56.028;92.904;2022-12-05T04:42:53;90.10;;;31.80;;
42886;SDS011;29032;56.028;92.904;2022-12-05T04:47:58;72.60;;;26.67;;
42886;SDS011;29032;56.028;92.904;2022-12-05T04:53:06;52.47;;;21.63;;
42886;SDS011;29032;56.028;92.904;2022-12-05T04:58:11;53.50;;;20.67;;
42886;SDS011;29032;56.028;92.904;2022-12-05T05:03:18;53.83;;;20.50;;
42886;SDS011;29032;56.028;92.904;2022-12-05T05:08:27;63.70;;;22.60;;
42886;SDS011;29032;56.028;92.904;2022-12-05T05:13:30;54.00;;;22.10;;
42886;SDS011;29032;56.028;92.904;2022-12-05T05:18:32;57.63;;;23.13;;
42886;SDS011;29032;56.028;92.904;2022-12-05T05:23:35;62.33;;;23.80;;
42886;SDS011;29032;56.028;92.904;2022-12-05T05:28:37;60.10;;;22.40;;
42886;SDS011;29032;56.028;92.904;2022-12-05T05:33:40;92.47;;;31.37;;
42886;SDS011;29032;56.028;92.904;2022-12-05T05:38:44;110.23;;;40.20;;
42886;SDS011;29032;56.028;92.904;2022-12-05T05:43:47;102.23;;;37.73;;
42886;SDS011;29032;56.028;92.904;2022-12-05T05:48:50;100.23;;;38.03;;
42886;SDS011;29032;56.028;92.904;2022-12-05T05:53:54;111.83;;;39.63;;
42886;SDS011;29032;56.028;92.904;2022-12-05T05:58:58;93.80;;;35.47;;
42886;SDS011;29032;56.028;92.904;2022-12-05T06:04:01;86.97;;;34.77;;
42886;SDS011;29032;56.028;92.904;2022-12-05T06:09:06;94.57;;;34.23;;
42886;SDS011;29032;56.028;92.904;2022-12-05T06:14:08;83.73;;;32.63;;
42886;SDS011;29032;56.028;92.904;2022-12-05T06:19:10;92.83;;;33.77;;
42886;SDS011;29032;56.028;92.904;2022-12-05T06:24:14;86.87;;;34.60;;
42886;SDS011;29032;56.028;92.904;2022-12-05T06:29:19;88.25;;;36.20;;
42886;SDS011;29032;56.028;92.904;2022-12-05T06:34:21;86.70;;;33.00;;
42886;SDS011;29032;56.028;92.904;2022-12-05T06:39:27;89.57;;;31.53;;
42886;SDS011;29032;56.028;92.904;2022-12-05T06:44:29;69.30;;;27.80;;
42886;SDS011;29032;56.028;92.904;2022-12-05T06:49:31;64.40;;;25.57;;
42886;SDS011;29032;56.028;92.904;2022-12-05T06:54:35;58.37;;;23.23;;
42886;SDS011;29032;56.028;92.904;2022-12-05T06:59:37;55.07;;;21.60;;
42886;SDS011;29032;56.028;92.904;2022-12-05T07:04:39;53.30;;;21.57;;
42886;SDS011;29032;56.028;92.904;2022-12-05T07:09:43;54.13;;;20.50;;
42886;SDS011;29032;56.028;92.904;2022-12-05T07:14:45;48.90;;;20.00;;
42886;SDS011;29032;56.028;92.904;2022-12-05T07:19:47;58.03;;;23.90;;
42886;SDS011;29032;56.028;92.904;2022-12-05T07:24:51;54.87;;;23.33;;
42886;SDS011;29032;56.028;92.904;2022-12-05T07:29:53;56.00;;;23.70;;
42886;SDS011;29032;56.028;92.904;2022-12-05T07:34:56;53.27;;;23.40;;
42886;SDS011;29032;56.028;92.904;2022-12-05T07:39:59;58.00;;;25.10;;
42886;SDS011;29032;56.028;92.904;2022-12-05T07:45:01;59.67;;;24.97;;
42886;SDS011;29032;56.028;92.904;2022-12-05T07:50:04;56.53;;;22.63;;
42886;SDS011;29032;56.028;92.904;2022-12-05T07:55:09;51.83;;;23.17;;
42886;SDS011;29032;56.028;92.904;2022-12-05T08:00:11;62.27;;;23.67;;
42886;SDS011;29032;56.028;92.904;2022-12-05T08:05:15;66.20;;;23.90;;
42886;SDS011;29032;56.028;92.904;2022-12-05T08:10:18;59.83;;;24.97;;
42886;SDS011;29032;56.028;92.904;2022-12-05T08:15:32;67.33;;;28.47;;
42886;SDS011;29032;56.028;92.904;2022-12-05T08:20:35;69.80;;;26.93;;
42886;SDS011;29032;56.028;92.904;2022-12-05T08:25:39;64.13;;;26.87;;
42886;SDS011;29032;56.028;92.904;2022-12-05T08:30:41;71.17;;;27.20;;
42886;SDS011;29032;56.028;92.904;2022-12-05T08:35:43;71.80;;;27.13;;
42886;SDS011;29032;56.028;92.904;2022-12-05T08:40:47;62.20;;;26.17;;
42886;SDS011;29032;56.028;92.904;2022-12-05T08:45:49;62.73;;;27.07;;
42886;SDS011;29032;56.028;92.904;2022-12-05T08:50:51;68.60;;;27.43;;
42886;SDS011;29032;56.028;92.904;2022-12-05T08:55:55;71.37;;;28.27;;
42886;SDS011;29032;56.028;92.904;2022-12-05T09:01:04;73.50;;;28.30;;
42886;SDS011;29032;56.028;92.904;2022-12-05T09:06:08;68.05;;;27.00;;
42886;SDS011;29032;56.028;92.904;2022-12-05T09:11:13;72.80;;;28.93;;
42886;SDS011;29032;56.028;92.904;2022-12-05T09:16:17;73.80;;;29.30;;
42886;SDS011;29032;56.028;92.904;2022-12-05T09:21:21;63.87;;;27.93;;
42886;SDS011;29032;56.028;92.904;2022-12-05T09:26:27;68.23;;;27.90;;
42886;SDS011;29032;56.028;92.904;2022-12-05T09:31:31;73.70;;;29.37;;
42886;SDS011;29032;56.028;92.904;2022-12-05T09:36:33;81.40;;;33.37;;
42886;SDS011;29032;56.028;92.904;2022-12-05T09:41:45;81.67;;;33.97;;
42886;SDS011;29032;56.028;92.904;2022-12-05T09:46:57;88.90;;;36.80;;
42886;SDS011;29032;56.028;92.904;2022-12-05T09:52:02;122.17;;;45.20;;
42886;SDS011;29032;56.028;92.904;2022-12-05T09:57:07;144.43;;;57.07;;
42886;SDS011;29032;56.028;92.904;2022-12-05T10:02:15;143.13;;;53.40;;
42886;SDS011;29032;56.028;92.904;2022-12-05T10:07:31;144.70;;;56.83;;
42886;SDS011;29032;56.028;92.904;2022-12-05T10:12:44;145.60;;;54.90;;
42886;SDS011;29032;56.028;92.904;2022-12-05T10:17:56;170.63;;;66.00;;
42886;SDS011;29032;56.028;92.904;2022-12-05T10:23:02;176.63;;;67.23;;
42886;SDS011;29032;56.028;92.904;2022-12-05T10:28:11;204.40;;;76.67;;
42886;SDS011;29032;56.028;92.904;2022-12-05T10:33:20;199.57;;;80.40;;
42886;SDS011;29032;56.028;92.904;2022-12-05T10:38:24;207.90;;;78.17;;
42886;SDS011;29032;56.028;92.904;2022-12-05T10:43:29;135.13;;;51.33;;
42886;SDS011;29032;56.028;92.904;2022-12-05T10:48:34;137.93;;;50.70;;
42886;SDS011;29032;56.028;92.904;2022-12-05T10:53:38;140.77;;;49.43;;
42886;SDS011;29032;56.028;92.904;2022-12-05T10:58:47;125.97;;;48.07;;
42886;SDS011;29032;56.028;92.904;2022-12-05T11:03:55;130.77;;;49.23;;
42886;SDS011;29032;56.028;92.904;2022-12-05T11:09:01;141.73;;;51.23;;
42886;SDS011;29032;56.028;92.904;2022-12-05T11:14:21;153.53;;;58.27;;
42886;SDS011;29032;56.028;92.904;2022-12-05T11:19:25;175.67;;;64.33;;
42886;SDS011;29032;56.028;92.904;2022-12-05T11:24:30;161.90;;;61.87;;
42886;SDS011;29032;56.028;92.904;2022-12-05T11:29:35;153.13;;;60.00;;
42886;SDS011;29032;56.028;92.904;2022-12-05T11:34:38;145.73;;;52.17;;
42886;SDS011;29032;56.028;92.904;2022-12-05T11:39:46;161.80;;;56.23;;
42886;SDS011;29032;56.028;92.904;2022-12-05T11:50:35;117.80;;;42.37;;
42886;SDS011;29032;56.028;92.904;2022-12-05T11:55:46;114.57;;;39.07;;
42886;SDS011;29032;56.028;92.904;2022-12-05T12:01:00;104.40;;;37.43;;
42886;SDS011;29032;56.028;92.904;2022-12-05T12:06:16;111.60;;;36.73;;
42886;SDS011;29032;56.028;92.904;2022-12-05T12:11:26;80.63;;;30.87;;
42886;SDS011;29032;56.028;92.904;2022-12-05T12:16:37;89.87;;;31.57;;
42886;SDS011;29032;56.028;92.904;2022-12-05T12:21:54;88.67;;;32.87;;
42886;SDS011;29032;56.028;92.904;2022-12-05T12:27:08;82.27;;;28.53;;
42886;SDS011;29032;56.028;92.904;2022-12-05T12:32:19;92.90;;;31.57;;
42886;SDS011;29032;56.028;92.904;2022-12-05T12:37:32;86.97;;;31.53;;
42886;SDS011;29032;56.028;92.904;2022-12-05T12:42:44;76.33;;;25.73;;
42886;SDS011;29032;56.028;92.904;2022-12-05T12:48:01;74.97;;;25.87;;
42886;SDS011;29032;56.028;92.904;2022-12-05T12:58:46;49.07;;;18.30;;
42886;SDS011;29032;56.028;92.904;2022-12-05T13:03:55;48.60;;;15.77;;
42886;SDS011;29032;56.028;92.904;2022-12-05T13:14:03;42.90;;;14.70;;
42886;SDS011;29032;56.028;92.904;2022-12-05T13:19:18;58.37;;;20.33;;
42886;SDS011;29032;56.028;92.904;2022-12-05T13:24:26;37.47;;;15.70;;
42886;SDS011;29032;56.028;92.904;2022-12-05T13:29:30;33.27;;;13.23;;
42886;SDS011;29032;56.028;92.904;2022-12-05T13:34:45;41.80;;;13.10;;
42886;SDS011;29032;56.028;92.904;2022-12-05T13:39:50;49.17;;;17.50;;
42886;SDS011;29032;56.028;92.904;2022-12-05T13:44:55;40.90;;;15.30;;
42886;SDS011;29032;56.028;92.904;2022-12-05T13:50:11;40.80;;;15.07;;
42886;SDS011;29032;56.028;92.904;2022-12-05T13:55:23;59.67;;;22.80;;
42886;SDS011;29032;56.028;92.904;2022-12-05T14:05:38;73.67;;;24.50;;
42886;SDS011;29032;56.028;92.904;2022-12-05T14:21:46;53.30;;;18.57;;
42886;SDS011;29032;56.028;92.904;2022-12-05T14:27:01;78.38;;;23.90;;
42886;SDS011;29032;56.028;92.904;2022-12-05T14:32:17;53.73;;;21.27;;
42886;SDS011;29032;56.028;92.904;2022-12-05T14:37:27;48.63;;;19.40;;
42886;SDS011;29032;56.028;92.904;2022-12-05T14:42:34;49.77;;;17.67;;
42886;SDS011;29032;56.028;92.904;2022-12-05T14:47:45;48.40;;;18.90;;
42886;SDS011;29032;56.028;92.904;2022-12-05T14:58:24;58.33;;;18.23;;
42886;SDS011;29032;56.028;92.904;2022-12-05T15:03:33;49.03;;;15.93;;
42886;SDS011;29032;56.028;92.904;2022-12-05T15:08:42;53.50;;;19.10;;
42886;SDS011;29032;56.028;92.904;2022-12-05T15:13:47;36.57;;;14.93;;
42886;SDS011;29032;56.028;92.904;2022-12-05T15:18:49;32.47;;;11.97;;
42886;SDS011;29032;56.028;92.904;2022-12-05T15:23:57;28.87;;;11.43;;
42886;SDS011;29032;56.028;92.904;2022-12-05T15:29:00;28.33;;;10.50;;
42886;SDS011;29032;56.028;92.904;2022-12-05T15:34:06;24.43;;;10.20;;
42886;SDS011;29032;56.028;92.904;2022-12-05T15:39:18;34.17;;;11.93;;
42886;SDS011;29032;56.028;92.904;2022-12-05T15:44:21;38.57;;;12.80;;
42886;SDS011;29032;56.028;92.904;2022-12-05T15:49:27;40.33;;;13.60;;
42886;SDS011;29032;56.028;92.904;2022-12-05T15:54:32;55.93;;;19.20;;
42886;SDS011;29032;56.028;92.904;2022-12-05T15:59:37;40.50;;;13.75;;
42886;SDS011;29032;56.028;92.904;2022-12-05T16:04:45;31.17;;;11.07;;
42886;SDS011;29032;56.028;92.904;2022-12-05T16:09:51;32.67;;;12.87;;
42886;SDS011;29032;56.028;92.904;2022-12-05T16:14:57;32.97;;;12.38;;
42886;SDS011;29032;56.028;92.904;2022-12-05T16:20:10;33.92;;;11.45;;
42886;SDS011;29032;56.028;92.904;2022-12-05T16:25:24;52.80;;;19.30;;
42886;SDS011;29032;56.028;92.904;2022-12-05T16:30:28;54.43;;;17.47;;
42886;SDS011;29032;56.028;92.904;2022-12-05T16:35:34;32.70;;;12.23;;
42886;SDS011;29032;56.028;92.904;2022-12-05T16:40:41;45.27;;;14.23;;
42886;SDS011;29032;56.028;92.904;2022-12-05T16:45:52;45.20;;;14.13;;
42886;SDS011;29032;56.028;92.904;2022-12-05T16:51:14;45.83;;;14.93;;
42886;SDS011;29032;56.028;92.904;2022-12-05T16:56:21;40.73;;;13.90;;
42886;SDS011;29032;56.028;92.904;2022-12-05T17:06:27;76.40;;;22.67;;
42886;SDS011;29032;56.028;92.904;2022-12-05T17:11:31;59.30;;;19.10;;
42886;SDS011;29032;56.028;92.904;2022-12-05T17:16:36;53.33;;;18.67;;
42886;SDS011;29032;56.028;92.904;2022-12-05T17:21:39;58.97;;;17.90;;
42886;SDS011;29032;56.028;92.904;2022-12-05T17:26:44;60.53;;;18.13;;
42886;SDS011;29032;56.028;92.904;2022-12-05T17:31:46;51.53;;;16.73;;
42886;SDS011;29032;56.028;92.904;2022-12-05T17:36:49;39.33;;;14.53;;
42886;SDS011;29032;56.028;92.904;2022-12-05T17:41:52;29.80;;;12.03;;
42886;SDS011;29032;56.028;92.904;2022-12-05T17:46:55;36.43;;;10.83;;
42886;SDS011;29032;56.028;92.904;2022-12-05T17:51:57;28.97;;;10.30;;
42886;SDS011;29032;56.028;92.904;2022-12-05T17:57:01;32.33;;;9.93;;
42886;SDS011;29032;56.028;92.904;2022-12-05T18:02:03;22.03;;;8.03;;
42886;SDS011;29032;56.028;92.904;2022-12-05T18:07:05;20.73;;;7.10;;
42886;SDS011;29032;56.028;92.904;2022-12-05T18:12:09;32.13;;;9.87;;
42886;SDS011;29032;56.028;92.904;2022-12-05T18:17:11;26.90;;;9.03;;
42886;SDS011;29032;56.028;92.904;2022-12-05T18:22:13;20.43;;;7.37;;
42886;SDS011;29032;56.028;92.904;2022-12-05T18:27:17;32.33;;;9.77;;
42886;SDS011;29032;56.028;92.904;2022-12-05T18:32:20;26.93;;;10.07;;
42886;SDS011;29032;56.028;92.904;2022-12-05T18:37:22;28.47;;;9.00;;
42886;SDS011;29032;56.028;92.904;2022-12-05T18:42:29;34.10;;;10.13;;
42886;SDS011;29032;56.028;92.904;2022-12-05T18:47:32;21.97;;;9.20;;
42886;SDS011;29032;56.028;92.904;2022-12-05T18:52:34;22.50;;;7.77;;
42886;SDS011;29032;56.028;92.904;2022-12-05T18:57:37;12.30;;;6.00;;
42886;SDS011;29032;56.028;92.904;2022-12-05T19:02:40;15.50;;;4.73;;
42886;SDS011;29032;56.028;92.904;2022-12-05T19:07:42;12.40;;;5.07;;
42886;SDS011;29032;56.028;92.904;2022-12-05T19:12:45;13.60;;;5.13;;
42886;SDS011;29032;56.028;92.904;2022-12-05T19:17:47;9.80;;;4.67;;
42886;SDS011;29032;56.028;92.904;2022-12-05T19:22:49;15.33;;;5.37;;
42886;SDS011;29032;56.028;92.904;2022-12-05T19:27:53;16.17;;;5.70;;
42886;SDS011;29032;56.028;92.904;2022-12-05T19:32:56;12.40;;;5.50;;
42886;SDS011;29032;56.028;92.904;2022-12-05T19:37:58;11.93;;;4.50;;
42886;SDS011;29032;56.028;92.904;2022-12-05T19:43:01;13.00;;;4.80;;
42886;SDS011;29032;56.028;92.904;2022-12-05T19:48:04;11.50;;;4.60;;
42886;SDS011;29032;56.028;92.904;2022-12-05T19:53:06;11.97;;;4.67;;
42886;SDS011;29032;56.028;92.904;2022-12-05T19:58:10;11.63;;;5.23;;
42886;SDS011;29032;56.028;92.904;2022-12-05T20:03:12;11.87;;;4.83;;
42886;SDS011;29032;56.028;92.904;2022-12-05T20:08:14;10.43;;;4.90;;
42886;SDS011;29032;56.028;92.904;2022-12-05T20:13:18;8.83;;;4.80;;
42886;SDS011;29032;56.028;92.904;2022-12-05T20:18:20;12.97;;;4.60;;
42886;SDS011;29032;56.028;92.904;2022-12-05T20:23:22;12.23;;;4.67;;
42886;SDS011;29032;56.028;92.904;2022-12-05T20:28:26;9.43;;;4.70;;
42886;SDS011;29032;56.028;92.904;2022-12-05T20:33:29;10.37;;;4.87;;
42886;SDS011;29032;56.028;92.904;2022-12-05T20:38:31;8.03;;;4.23;;
42886;SDS011;29032;56.028;92.904;2022-12-05T20:43:35;8.83;;;4.40;;
42886;SDS011;29032;56.028;92.904;2022-12-05T20:48:37;9.07;;;4.40;;
42886;SDS011;29032;56.028;92.904;2022-12-05T20:53:40;10.13;;;4.13;;
42886;SDS011;29032;56.028;92.904;2022-12-05T20:58:45;10.03;;;4.37;;
42886;SDS011;29032;56.028;92.904;2022-12-05T21:03:49;10.57;;;4.03;;
42886;SDS011;29032;56.028;92.904;2022-12-05T21:08:52;8.73;;;3.33;;
42886;SDS011;29032;56.028;92.904;2022-12-05T21:13:57;13.43;;;4.43;;
42886;SDS011;29032;56.028;92.904;2022-12-05T21:19:00;8.27;;;4.40;;
42886;SDS011;29032;56.028;92.904;2022-12-05T21:24:03;6.87;;;3.70;;
42886;SDS011;29032;56.028;92.904;2022-12-05T21:29:07;13.27;;;4.80;;
42886;SDS011;29032;56.028;92.904;2022-12-05T21:34:12;12.43;;;4.30;;
42886;SDS011;29032;56.028;92.904;2022-12-05T21:39:15;8.70;;;3.92;;
42886;SDS011;29032;56.028;92.904;2022-12-05T21:44:19;10.47;;;5.30;;
42886;SDS011;29032;56.028;92.904;2022-12-05T21:49:21;10.60;;;4.53;;
42886;SDS011;29032;56.028;92.904;2022-12-05T21:54:23;13.00;;;5.40;;
42886;SDS011;29032;56.028;92.904;2022-12-05T21:59:27;12.20;;;5.07;;
42886;SDS011;29032;56.028;92.904;2022-12-05T22:04:29;12.40;;;5.43;;
42886;SDS011;29032;56.028;92.904;2022-12-05T22:09:31;13.93;;;5.33;;
42886;SDS011;29032;56.028;92.904;2022-12-05T22:14:35;13.43;;;5.03;;
42886;SDS011;29032;56.028;92.904;2022-12-05T22:19:37;10.77;;;5.00;;
42886;SDS011;29032;56.028;92.904;2022-12-05T22:24:39;14.20;;;5.60;;
42886;SDS011;29032;56.028;92.904;2022-12-05T22:29:43;15.60;;;5.97;;
42886;SDS011;29032;56.028;92.904;2022-12-05T22:34:45;11.10;;;5.87;;
42886;SDS011;29032;56.028;92.904;2022-12-05T22:39:47;11.50;;;4.97;;
42886;SDS011;29032;56.028;92.904;2022-12-05T22:44:51;18.03;;;5.37;;
42886;SDS011;29032;56.028;92.904;2022-12-05T22:49:54;13.53;;;7.47;;
42886;SDS011;29032;56.028;92.904;2022-12-05T22:54:56;13.23;;;5.77;;
42886;SDS011;29032;56.028;92.904;2022-12-05T23:00:00;15.93;;;5.63;;
42886;SDS011;29032;56.028;92.904;2022-12-05T23:05:02;18.07;;;6.33;;
42886;SDS011;29032;56.028;92.904;2022-12-05T23:10:05;18.17;;;5.70;;
42886;SDS011;29032;56.028;92.904;2022-12-05T23:15:10;16.50;;;6.87;;
42886;SDS011;29032;56.028;92.904;2022-12-05T23:20:12;15.93;;;5.93;;
42886;SDS011;29032;56.028;92.904;2022-12-05T23:25:16;14.83;;;5.97;;
42886;SDS011;29032;56.028;92.904;2022-12-05T23:30:20;14.63;;;5.70;;
42886;SDS011;29032;56.028;92.904;2022-12-05T23:35:22;13.33;;;5.70;;
42886;SDS011;29032;56.028;92.904;2022-12-05T23:40:24;17.27;;;7.07;;
42886;SDS011;29032;56.028;92.904;2022-12-05T23:45:28;21.80;;;7.30;;
42886;SDS011;29032;56.028;92.904;2022-12-05T23:50:30;16.03;;;6.80;;
42886;SDS011;29032;56.028;92.904;2022-12-05T23:55:32;18.07;;;7.53;;
